createdAt,value
2022-10-08T00:01:17.911Z,99.90
2022-10-08T00:03:51.808Z,99.90
2022-10-08T00:06:33.115Z,99.90
2022-10-08T00:09:07.420Z,99.90
2022-10-08T00:11:37.640Z,99.90
2022-10-08T00:14:05.760Z,99.90
2022-10-08T00:16:36.684Z,99.90
2022-10-08T00:19:10.554Z,99.90
2022-10-08T00:21:39.075Z,99.90
2022-10-08T00:24:08.952Z,99.90
2022-10-08T00:26:41.312Z,99.90
2022-10-08T00:29:14.048Z,99.90
2022-10-08T00:31:44.090Z,99.90
2022-10-08T00:34:17.710Z,99.90
2022-10-08T00:36:45.013Z,99.90
2022-10-08T00:39:19.137Z,99.90
2022-10-08T00:41:48.982Z,99.90
2022-10-08T00:44:47.227Z,99.90
2022-10-08T00:47:35.435Z,99.90
2022-10-08T00:50:20.231Z,99.90
2022-10-08T00:52:50.998Z,99.90
2022-10-08T00:55:21.709Z,99.90
2022-10-08T00:57:49.759Z,99.90
2022-10-08T01:00:21.509Z,99.90
2022-10-08T01:02:49.064Z,99.90
2022-10-08T01:05:20.032Z,99.90
2022-10-08T01:08:20.235Z,99.90
2022-10-08T01:11:05.732Z,99.90
2022-10-08T01:13:38.758Z,99.90
2022-10-08T01:16:11.848Z,99.90
2022-10-08T01:19:07.800Z,99.90
2022-10-08T01:21:43.696Z,99.90
2022-10-08T01:25:08.133Z,99.90
2022-10-08T01:27:47.403Z,99.90
2022-10-08T01:30:17.063Z,99.90
2022-10-08T01:32:51.363Z,99.90
2022-10-08T01:35:26.799Z,99.90
2022-10-08T01:37:56.515Z,99.90
2022-10-08T01:40:29.870Z,99.90
2022-10-08T01:43:00.450Z,99.90
2022-10-08T01:45:33.780Z,99.90
2022-10-08T01:48:06.323Z,99.90
2022-10-08T01:50:54.061Z,99.90
2022-10-08T01:53:24.990Z,99.90
2022-10-08T01:55:54.265Z,99.90
2022-10-08T01:58:41.309Z,99.90
2022-10-08T02:01:15.145Z,99.90
2022-10-08T02:04:02.502Z,99.90
2022-10-08T02:06:31.636Z,99.90
2022-10-08T02:08:58.821Z,99.90
2022-10-08T02:11:30.366Z,99.90
2022-10-08T02:13:57.454Z,99.90
2022-10-08T02:16:29.620Z,99.90
2022-10-08T02:19:13.063Z,99.90
2022-10-08T02:21:41.328Z,99.90
2022-10-08T02:24:17.291Z,99.90
2022-10-08T02:26:51.354Z,99.90
2022-10-08T02:29:47.637Z,99.90
2022-10-08T02:32:29.229Z,99.90
2022-10-08T02:34:57.691Z,99.90
2022-10-08T02:37:35.741Z,99.90
2022-10-08T02:40:08.583Z,99.90
2022-10-08T02:42:39.928Z,99.90
2022-10-08T02:45:37.753Z,99.90
2022-10-08T02:48:15.038Z,99.90
2022-10-08T02:50:44.844Z,99.90
2022-10-08T02:53:18.372Z,99.90
2022-10-08T02:56:08.299Z,99.90
2022-10-08T02:58:35.848Z,99.90
2022-10-08T03:01:26.968Z,99.90
2022-10-08T03:04:03.137Z,99.90
2022-10-08T03:06:32.382Z,99.90
2022-10-08T03:09:01.500Z,99.90
2022-10-08T03:11:30.885Z,99.90
2022-10-08T03:14:00.069Z,99.90
2022-10-08T03:16:36.630Z,99.90
2022-10-08T03:19:05.475Z,99.90
2022-10-08T03:21:37.510Z,99.90
2022-10-08T03:24:04.803Z,99.90
2022-10-08T03:26:32.042Z,99.90
2022-10-08T03:28:59.215Z,99.90
2022-10-08T03:31:26.504Z,99.90
2022-10-08T03:33:54.732Z,99.90
2022-10-08T03:36:23.712Z,99.90
2022-10-08T03:38:55.675Z,99.90
2022-10-08T03:41:22.737Z,99.90
2022-10-08T03:43:49.863Z,99.90
2022-10-08T03:46:17.134Z,99.90
2022-10-08T03:48:48.213Z,99.90
2022-10-08T03:51:15.757Z,99.90
2022-10-08T03:53:44.042Z,99.90
2022-10-08T03:56:17.732Z,99.90
2022-10-08T03:58:45.993Z,99.90
2022-10-08T04:01:16.071Z,99.90
2022-10-08T04:03:45.524Z,99.90
2022-10-08T04:06:13.202Z,99.90
2022-10-08T04:08:40.776Z,99.90
2022-10-08T04:11:10.572Z,99.90
2022-10-08T04:13:38.872Z,99.90
2022-10-08T04:16:09.505Z,99.90
2022-10-08T04:18:36.803Z,99.90
2022-10-08T04:21:06.975Z,99.90
2022-10-08T04:23:36.297Z,99.90
2022-10-08T04:26:04.310Z,99.90
2022-10-08T04:28:36.196Z,99.90
2022-10-08T04:31:08.734Z,99.90
2022-10-08T04:33:36.970Z,99.90
2022-10-08T04:36:30.950Z,99.90
2022-10-08T04:38:58.043Z,99.90
2022-10-08T04:41:26.902Z,99.90
2022-10-08T04:43:58.274Z,99.90
2022-10-08T04:46:25.372Z,99.90
2022-10-08T04:48:54.766Z,99.90
2022-10-08T04:51:24.063Z,99.90
2022-10-08T04:53:51.663Z,99.90
2022-10-08T04:56:24.733Z,99.90
2022-10-08T04:58:51.970Z,99.90
2022-10-08T05:01:20.866Z,99.90
2022-10-08T05:03:50.693Z,99.90
2022-10-08T05:06:20.097Z,99.90
2022-10-08T05:08:47.677Z,99.90
2022-10-08T05:11:15.701Z,99.90
2022-10-08T05:13:43.250Z,99.90
2022-10-08T05:16:13.829Z,99.90
2022-10-08T05:18:42.681Z,99.90
2022-10-08T05:21:12.221Z,99.90
2022-10-08T05:23:40.372Z,99.90
2022-10-08T05:26:35.771Z,99.90
2022-10-08T05:29:10.644Z,99.90
2022-10-08T05:31:38.718Z,99.90
2022-10-08T05:34:06.142Z,99.90
2022-10-08T05:36:34.472Z,99.90
2022-10-08T05:39:04.089Z,99.90
2022-10-08T05:41:34.118Z,99.90
2022-10-08T05:44:04.129Z,99.90
2022-10-08T05:46:33.880Z,99.90
2022-10-08T05:49:03.338Z,99.90
2022-10-08T05:51:31.048Z,99.90
2022-10-08T05:53:59.797Z,99.90
2022-10-08T05:56:28.600Z,99.90
2022-10-08T05:58:55.724Z,99.90
2022-10-08T06:01:25.030Z,99.90
2022-10-08T06:03:54.389Z,99.90
2022-10-08T06:06:23.150Z,99.90
2022-10-08T06:09:03.756Z,99.90
2022-10-08T06:11:32.757Z,99.90
2022-10-08T06:14:01.824Z,99.90
2022-10-08T06:16:30.196Z,99.90
2022-10-08T06:18:57.396Z,99.90
2022-10-08T06:21:28.325Z,99.90
2022-10-08T06:24:00.875Z,99.90
2022-10-08T06:26:35.986Z,99.90
2022-10-08T06:29:26.747Z,99.90
2022-10-08T06:31:57.951Z,99.90
2022-10-08T06:34:30.060Z,99.90
2022-10-08T06:37:00.659Z,99.90
2022-10-08T06:39:30.852Z,99.90
2022-10-08T06:42:01.150Z,99.90
2022-10-08T06:44:28.344Z,99.90
2022-10-08T06:47:00.205Z,99.90
2022-10-08T06:49:29.078Z,99.90
2022-10-08T06:51:56.873Z,99.90
2022-10-08T06:54:27.840Z,99.90
2022-10-08T06:56:57.228Z,99.90
2022-10-08T06:59:24.800Z,99.90
2022-10-08T07:01:55.401Z,99.90
2022-10-08T07:04:26.979Z,99.90
2022-10-08T07:07:01.171Z,99.90
2022-10-08T07:09:32.893Z,99.90
2022-10-08T07:12:02.420Z,99.90
2022-10-08T07:14:38.325Z,99.90
2022-10-08T07:17:15.701Z,99.90
2022-10-08T07:19:45.572Z,99.90
2022-10-08T07:22:14.962Z,99.90
2022-10-08T07:24:45.825Z,99.90
2022-10-08T07:27:17.679Z,99.90
2022-10-08T07:29:46.678Z,99.90
2022-10-08T07:32:18.056Z,99.90
2022-10-08T07:34:47.123Z,99.90
2022-10-08T07:37:23.287Z,99.90
2022-10-08T07:39:55.060Z,99.90
2022-10-08T07:42:26.033Z,99.90
2022-10-08T07:44:57.292Z,99.90
2022-10-08T07:47:25.575Z,99.90
2022-10-08T07:49:53.679Z,99.90
2022-10-08T07:52:22.320Z,99.90
2022-10-08T07:54:50.143Z,99.90
2022-10-08T07:57:17.824Z,99.90
2022-10-08T07:59:45.520Z,99.90
2022-10-08T08:02:14.668Z,99.90
2022-10-08T08:04:42.007Z,99.90
2022-10-08T08:07:09.431Z,99.90
2022-10-08T08:09:38.120Z,99.90
2022-10-08T08:12:05.871Z,99.90
2022-10-08T08:14:34.098Z,99.90
2022-10-08T08:17:02.547Z,99.90
2022-10-08T08:19:30.141Z,99.90
2022-10-08T08:21:58.087Z,99.90
2022-10-08T08:24:25.960Z,99.90
2022-10-08T08:26:57.563Z,99.90
2022-10-08T08:29:25.462Z,99.90
2022-10-08T08:31:53.542Z,99.90
2022-10-08T08:34:24.268Z,99.90
2022-10-08T08:36:54.245Z,99.90
2022-10-08T08:39:24.674Z,99.90
2022-10-08T08:42:06.358Z,99.90
2022-10-08T08:44:35.622Z,99.90
2022-10-08T08:47:07.318Z,99.90
2022-10-08T08:49:48.573Z,99.90
2022-10-08T08:52:19.440Z,99.90
2022-10-08T08:54:49.604Z,99.90
2022-10-08T08:57:41.936Z,99.90
2022-10-08T09:00:16.367Z,99.90
2022-10-08T09:03:01.405Z,99.90
2022-10-08T09:05:31.953Z,99.90
2022-10-08T09:08:16.598Z,99.90
2022-10-08T09:10:49.190Z,99.90
2022-10-08T09:13:21.547Z,99.90
2022-10-08T09:15:48.971Z,99.90
2022-10-08T09:18:16.904Z,99.90
2022-10-08T09:20:44.946Z,99.90
2022-10-08T09:23:20.876Z,99.90
2022-10-08T09:25:56.905Z,99.90
2022-10-08T09:28:44.870Z,99.90
2022-10-08T09:31:39.748Z,99.90
2022-10-08T09:34:18.783Z,99.90
2022-10-08T09:37:06.640Z,99.90
2022-10-08T09:39:38.403Z,99.90
2022-10-08T09:42:13.261Z,99.90
2022-10-08T09:44:52.288Z,99.90
2022-10-08T09:47:22.192Z,99.90
2022-10-08T09:50:08.153Z,99.90
2022-10-08T09:52:37.123Z,99.90
2022-10-08T09:55:16.204Z,99.90
2022-10-08T09:57:50.336Z,99.90
2022-10-08T10:00:37.599Z,99.90
2022-10-08T10:03:07.503Z,99.90
2022-10-08T10:05:36.482Z,99.90
2022-10-08T10:08:04.034Z,99.90
2022-10-08T10:10:40.777Z,99.90
2022-10-08T10:13:29.450Z,99.90
2022-10-08T10:16:09.171Z,99.90
2022-10-08T10:18:53.501Z,99.90
2022-10-08T10:21:30.313Z,99.90
2022-10-08T10:24:27.533Z,99.90
2022-10-08T10:26:59.438Z,99.90
2022-10-08T10:29:34.137Z,99.90
2022-10-08T10:32:09.207Z,99.90
2022-10-08T10:34:40.415Z,99.90
2022-10-08T10:37:19.617Z,99.90
2022-10-08T10:40:17.651Z,99.90
2022-10-08T10:42:56.503Z,99.90
2022-10-08T10:45:32.094Z,99.90
2022-10-08T10:48:00.356Z,99.90
2022-10-08T10:50:42.637Z,99.90
2022-10-08T10:53:15.844Z,99.90
2022-10-08T10:56:01.508Z,99.90
2022-10-08T10:58:45.272Z,99.90
2022-10-08T11:01:24.347Z,99.90
2022-10-08T11:04:46.257Z,99.90
2022-10-08T11:07:16.066Z,99.90
2022-10-08T11:09:49.385Z,99.90
2022-10-08T11:13:06.256Z,99.90
2022-10-08T11:15:42.537Z,99.90
2022-10-08T11:18:51.167Z,99.90
2022-10-08T11:21:52.491Z,99.90
2022-10-08T11:24:48.027Z,99.90
2022-10-08T11:27:51.991Z,99.90
2022-10-08T11:30:23.143Z,99.30
2022-10-08T11:32:54.409Z,99.90
2022-10-08T11:35:43.042Z,99.90
2022-10-08T11:38:28.939Z,99.90
2022-10-08T11:41:05.554Z,99.90
2022-10-08T11:44:08.607Z,99.90
2022-10-08T11:46:37.736Z,99.90
2022-10-08T11:49:17.373Z,99.90
2022-10-08T11:51:50.682Z,99.90
2022-10-08T11:54:34.892Z,99.90
2022-10-08T11:57:25.079Z,99.90
2022-10-08T12:00:16.725Z,99.90
2022-10-08T12:02:46.552Z,99.90
2022-10-08T12:05:18.853Z,99.90
2022-10-08T12:07:55.180Z,99.90
2022-10-08T12:10:29.692Z,99.90
2022-10-08T12:13:01.338Z,99.90
2022-10-08T12:15:28.997Z,99.90
2022-10-08T12:17:59.037Z,99.90
2022-10-08T12:20:34.656Z,99.90
2022-10-08T12:23:12.386Z,99.90
2022-10-08T12:26:09.089Z,99.90
2022-10-08T12:28:36.348Z,99.90
2022-10-08T12:31:28.445Z,99.90
2022-10-08T12:34:18.404Z,99.90
2022-10-08T12:37:23.675Z,99.90
2022-10-08T12:39:55.820Z,99.90
2022-10-08T12:42:30.743Z,99.50
2022-10-08T12:45:16.259Z,99.10
2022-10-08T12:48:11.121Z,99.50
2022-10-08T12:50:52.001Z,99.50
2022-10-08T12:53:19.376Z,99.70
2022-10-08T12:55:56.561Z,98.90
2022-10-08T12:58:33.534Z,98.60
2022-10-08T13:01:03.268Z,98.70
2022-10-08T13:03:30.484Z,98.50
2022-10-08T13:05:58.130Z,98.90
2022-10-08T13:08:39.970Z,98.40
2022-10-08T13:11:15.637Z,98.20
2022-10-08T13:13:45.690Z,97.90
2022-10-08T13:16:24.299Z,98.00
2022-10-08T13:18:57.801Z,97.80
2022-10-08T13:21:36.262Z,97.30
2022-10-08T13:24:25.529Z,97.40
2022-10-08T13:26:54.599Z,97.60
2022-10-08T13:29:21.855Z,98.00
2022-10-08T13:32:01.426Z,98.10
2022-10-08T13:34:43.517Z,97.80
2022-10-08T13:37:24.311Z,97.70
2022-10-08T13:39:58.413Z,97.70
2022-10-08T13:42:29.332Z,97.80
2022-10-08T13:44:59.414Z,97.90
2022-10-08T13:47:27.528Z,97.70
2022-10-08T13:50:00.678Z,97.50
2022-10-08T13:52:30.709Z,97.50
2022-10-08T13:55:01.069Z,97.60
2022-10-08T13:57:28.145Z,98.00
2022-10-08T13:59:55.592Z,98.10
2022-10-08T14:02:22.915Z,98.10
2022-10-08T14:04:50.562Z,98.10
2022-10-08T14:07:25.540Z,97.80
2022-10-08T14:09:55.262Z,97.70
2022-10-08T14:12:30.546Z,97.80
2022-10-08T14:14:57.622Z,97.90
2022-10-08T14:17:24.957Z,97.80
2022-10-08T14:19:52.736Z,98.00
2022-10-08T14:22:19.965Z,97.80
2022-10-08T14:24:47.173Z,97.70
2022-10-08T14:27:14.233Z,97.70
2022-10-08T14:29:41.340Z,97.90
2022-10-08T14:32:09.741Z,98.00
2022-10-08T14:34:37.215Z,98.00
2022-10-08T14:37:06.121Z,98.10
2022-10-08T14:39:33.358Z,98.10
2022-10-08T14:42:00.468Z,98.10
2022-10-08T14:44:27.669Z,98.20
2022-10-08T14:46:54.955Z,98.30
2022-10-08T14:49:22.729Z,98.20
2022-10-08T14:51:49.960Z,98.00
2022-10-08T14:54:18.263Z,98.10
2022-10-08T14:56:46.753Z,98.10
2022-10-08T14:59:14.698Z,98.40
2022-10-08T15:01:41.843Z,98.40
2022-10-08T15:04:12.850Z,98.60
2022-10-08T15:06:40.131Z,98.50
2022-10-08T15:09:07.516Z,98.60
2022-10-08T15:11:34.604Z,98.70
2022-10-08T15:14:01.844Z,98.70
2022-10-08T15:16:29.252Z,99.10
2022-10-08T15:18:56.650Z,98.70
2022-10-08T15:21:24.028Z,98.80
2022-10-08T15:23:51.137Z,98.80
2022-10-08T15:26:19.223Z,98.80
2022-10-08T15:28:47.032Z,98.70
2022-10-08T15:31:16.907Z,98.90
2022-10-08T15:33:46.647Z,98.90
2022-10-08T15:36:32.088Z,99.00
2022-10-08T15:39:13.380Z,99.10
2022-10-08T15:41:42.561Z,99.20
2022-10-08T15:44:20.569Z,99.30
2022-10-08T15:46:49.819Z,99.60
2022-10-08T15:49:17.317Z,99.60
2022-10-08T15:51:44.436Z,99.80
2022-10-08T15:54:11.634Z,99.80
2022-10-08T15:56:38.794Z,99.90
2022-10-08T15:59:06.051Z,99.90
2022-10-08T16:01:33.302Z,99.90
2022-10-08T16:04:00.510Z,99.90
2022-10-08T16:06:32.615Z,99.90
2022-10-08T16:09:01.519Z,99.90
2022-10-08T16:11:34.004Z,99.90
2022-10-08T16:14:04.648Z,99.90
2022-10-08T16:16:31.875Z,99.90
2022-10-08T16:19:04.741Z,99.90
2022-10-08T16:21:34.167Z,99.90
2022-10-08T16:24:02.047Z,99.90
2022-10-08T16:26:32.091Z,99.90
2022-10-08T16:29:01.270Z,99.90
2022-10-08T16:31:31.090Z,99.90
2022-10-08T16:34:09.824Z,99.90
2022-10-08T16:36:37.532Z,99.90
2022-10-08T16:39:06.530Z,99.90
2022-10-08T16:41:35.370Z,99.90
2022-10-08T16:44:12.305Z,99.90
2022-10-08T16:46:44.957Z,99.90
2022-10-08T16:49:29.486Z,99.90
2022-10-08T16:52:04.745Z,99.90
2022-10-08T16:54:32.988Z,99.90
2022-10-08T16:57:00.204Z,99.90
2022-10-08T16:59:29.438Z,99.90
2022-10-08T17:01:58.929Z,99.90
2022-10-08T17:04:28.089Z,99.90
2022-10-08T17:06:55.526Z,99.90
2022-10-08T17:09:22.844Z,99.90
2022-10-08T17:11:50.002Z,99.90
2022-10-08T17:14:17.226Z,99.90
2022-10-08T17:16:46.152Z,99.90
2022-10-08T17:19:13.976Z,99.90
2022-10-08T17:21:41.375Z,99.90
2022-10-08T17:24:09.807Z,99.90
2022-10-08T17:26:37.071Z,99.90
2022-10-08T17:29:06.723Z,99.90
2022-10-08T17:31:35.062Z,99.90
2022-10-08T17:34:06.458Z,99.90
2022-10-08T17:36:36.505Z,99.90
2022-10-08T17:39:06.418Z,99.90
2022-10-08T17:41:36.420Z,99.90
2022-10-08T17:44:06.182Z,99.90
2022-10-08T17:46:36.397Z,99.90
2022-10-08T17:49:04.330Z,99.90
2022-10-08T17:51:33.325Z,99.90
2022-10-08T17:54:14.520Z,99.90
2022-10-08T17:56:41.810Z,99.90
2022-10-08T17:59:09.075Z,99.90
2022-10-08T18:01:41.333Z,99.90
2022-10-08T18:04:13.666Z,99.90
2022-10-08T18:06:42.129Z,99.90
2022-10-08T18:09:12.054Z,99.90
2022-10-08T18:11:40.858Z,99.90
2022-10-08T18:14:08.554Z,99.90
2022-10-08T18:16:35.964Z,99.90
2022-10-08T18:19:08.422Z,99.90
2022-10-08T18:21:36.011Z,99.90
2022-10-08T18:24:03.778Z,99.90
2022-10-08T18:26:35.042Z,99.90
2022-10-08T18:29:06.771Z,99.90
2022-10-08T18:31:38.539Z,99.90
2022-10-08T18:34:12.876Z,99.90
2022-10-08T18:36:40.538Z,99.90
2022-10-08T18:39:13.648Z,99.90
2022-10-08T18:41:43.950Z,99.90
2022-10-08T18:44:14.584Z,99.90
2022-10-08T18:46:45.536Z,99.90
2022-10-08T18:49:14.496Z,99.90
2022-10-08T18:51:45.130Z,99.90
2022-10-08T18:54:12.494Z,99.90
2022-10-08T18:56:41.514Z,99.90
2022-10-08T18:59:15.089Z,99.90
2022-10-08T19:01:44.918Z,99.90
2022-10-08T19:04:17.419Z,99.90
2022-10-08T19:06:46.742Z,99.90
2022-10-08T19:09:14.470Z,99.90
2022-10-08T19:11:45.287Z,99.90
2022-10-08T19:14:15.094Z,99.90
2022-10-08T19:16:42.816Z,99.90
2022-10-08T19:19:17.642Z,99.90
2022-10-08T19:21:45.728Z,99.90
2022-10-08T19:24:24.510Z,99.90
2022-10-08T19:26:52.916Z,99.90
2022-10-08T19:29:22.836Z,99.90
2022-10-08T19:31:50.820Z,99.90
2022-10-08T19:34:21.427Z,99.90
2022-10-08T19:36:49.507Z,99.90
2022-10-08T19:39:19.287Z,99.90
2022-10-08T19:41:46.917Z,99.90
2022-10-08T19:44:15.088Z,99.90
2022-10-08T19:46:42.309Z,99.90
2022-10-08T19:49:10.379Z,99.90
2022-10-08T19:51:38.149Z,99.90
2022-10-08T19:54:05.924Z,99.90
2022-10-08T19:56:33.876Z,99.90
2022-10-08T19:59:01.418Z,99.90
2022-10-08T20:01:32.178Z,99.90
2022-10-08T20:04:00.859Z,99.90
2022-10-08T20:06:31.049Z,99.90
2022-10-08T20:09:01.662Z,99.90
2022-10-08T20:11:30.556Z,99.90
2022-10-08T20:13:59.333Z,99.90
2022-10-08T20:16:31.630Z,99.90
2022-10-08T20:19:02.278Z,99.90
2022-10-08T20:21:31.490Z,99.90
2022-10-08T20:23:59.099Z,99.90
2022-10-08T20:26:28.843Z,99.90
2022-10-08T20:28:59.655Z,99.90
2022-10-08T20:31:31.853Z,99.90
2022-10-08T20:34:02.057Z,99.90
2022-10-08T20:36:29.924Z,99.90
2022-10-08T20:38:58.052Z,99.90
2022-10-08T20:41:30.413Z,99.90
2022-10-08T20:44:00.871Z,99.90
2022-10-08T20:46:28.069Z,99.90
2022-10-08T20:48:55.478Z,99.90
2022-10-08T20:51:26.391Z,99.90
2022-10-08T20:53:56.754Z,99.90
2022-10-08T20:56:26.649Z,99.90
2022-10-08T20:58:54.337Z,99.90
2022-10-08T21:01:24.355Z,99.90
2022-10-08T21:03:52.750Z,99.90
2022-10-08T21:06:22.627Z,99.90
2022-10-08T21:08:52.717Z,99.90
2022-10-08T21:11:23.397Z,99.90
2022-10-08T21:13:51.675Z,99.90
2022-10-08T21:16:27.728Z,99.90
2022-10-08T21:18:57.598Z,99.90
2022-10-08T21:21:25.603Z,99.90
2022-10-08T21:23:53.769Z,99.90
2022-10-08T21:26:29.837Z,99.90
2022-10-08T21:29:02.832Z,99.90
2022-10-08T21:31:33.581Z,99.90
2022-10-08T21:34:00.898Z,99.90
2022-10-08T21:36:31.091Z,99.90
2022-10-08T21:39:02.260Z,99.90
2022-10-08T21:41:31.849Z,99.90
2022-10-08T21:44:01.819Z,99.90
2022-10-08T21:46:32.988Z,99.90
2022-10-08T21:49:07.458Z,99.90
2022-10-08T21:51:35.373Z,99.90
2022-10-08T21:54:05.356Z,99.90
2022-10-08T21:56:36.918Z,99.90
2022-10-08T21:59:06.420Z,99.90
2022-10-08T22:01:36.434Z,99.90
2022-10-08T22:04:16.766Z,99.90
2022-10-08T22:06:47.529Z,99.90
2022-10-08T22:09:23.060Z,99.90
2022-10-08T22:11:51.668Z,99.90
2022-10-08T22:14:19.747Z,99.90
2022-10-08T22:16:47.498Z,99.90
2022-10-08T22:19:15.345Z,99.90
2022-10-08T22:21:42.705Z,99.90
2022-10-08T22:24:10.181Z,99.90
2022-10-08T22:26:40.739Z,99.90
2022-10-08T22:29:09.356Z,99.90
2022-10-08T22:31:36.952Z,99.90
2022-10-08T22:34:04.305Z,99.90
2022-10-08T22:36:33.620Z,99.90
2022-10-08T22:39:00.884Z,99.90
2022-10-08T22:41:32.719Z,99.90
2022-10-08T22:44:00.967Z,99.90
2022-10-08T22:46:31.062Z,99.90
2022-10-08T22:49:03.971Z,99.90
2022-10-08T22:51:31.536Z,99.90
2022-10-08T22:53:59.284Z,99.90
2022-10-08T22:56:31.062Z,99.90
2022-10-08T22:59:00.056Z,99.90
2022-10-08T23:01:28.680Z,99.90
2022-10-08T23:03:56.595Z,99.90
2022-10-08T23:06:29.242Z,99.90
2022-10-08T23:09:01.375Z,99.90
2022-10-08T23:11:29.414Z,99.90
2022-10-08T23:13:58.173Z,99.90
2022-10-08T23:16:27.524Z,99.90
2022-10-08T23:19:06.582Z,99.90
2022-10-08T23:21:34.624Z,99.90
2022-10-08T23:24:02.130Z,99.90
2022-10-08T23:26:29.408Z,99.90
2022-10-08T23:28:59.234Z,99.90
2022-10-08T23:31:28.660Z,99.90
2022-10-08T23:33:56.964Z,99.90
2022-10-08T23:36:33.107Z,99.90
2022-10-08T23:39:00.299Z,99.90
2022-10-08T23:41:27.827Z,99.90
2022-10-08T23:43:56.665Z,99.90
2022-10-08T23:46:27.053Z,99.90
2022-10-08T23:48:54.891Z,99.90
2022-10-08T23:51:24.048Z,99.90
2022-10-08T23:53:52.621Z,99.90
2022-10-08T23:56:20.761Z,99.90
2022-10-08T23:58:48.369Z,99.90
